BTK6164 WAAA-WAPP
Flight info
| Callsign | BTK6164 |
|---|---|
| Flight time | 1h 18m |
| Altitude | 33000 |
| Route | SUGTA W53 HOLBA |
| Aircraft | A320/M-SDE3FGHIRWY/LB1 |
Departure
| Time | 2026-05-01 09:50 |
|---|---|
| Airport | Sultan Hasanuddin International Airport (WAAA) |
Arrival
| Time | 2026-05-01 11:09 |
|---|---|
| Airport | Pattimura International Airport (WAPP) |
| Time | Latitude | Longitude | Altitude | Speed | Heading |
|---|---|---|---|---|---|
| 2026-05-01 09:50 | -4.88557 | 119.61495 | 7923 ft | 283 kts | 85° |
| 2026-05-01 09:50 | -4.88369 | 119.63446 | 8621 ft | 286 kts | 85° |
| 2026-05-01 09:51 | -4.88175 | 119.65441 | 9329 ft | 289 kts | 85° |
| 2026-05-01 09:51 | -4.87901 | 119.67453 | 10001 ft | 294 kts | 74° |
| 2026-05-01 09:51 | -4.86957 | 119.69275 | 10589 ft | 299 kts | 51° |
| 2026-05-01 09:51 | -4.85519 | 119.70800 | 11253 ft | 301 kts | 45° |
| 2026-05-01 09:52 | -4.83992 | 119.72289 | 12088 ft | 307 kts | 45° |
| 2026-05-01 09:52 | -4.82456 | 119.73782 | 12889 ft | 309 kts | 45° |
| 2026-05-01 09:52 | -4.80905 | 119.75285 | 13590 ft | 311 kts | 45° |
| 2026-05-01 09:52 | -4.79356 | 119.76783 | 14150 ft | 315 kts | 45° |
| 2026-05-01 09:53 | -4.77955 | 119.78466 | 14656 ft | 316 kts | 63° |
| 2026-05-01 09:53 | -4.77243 | 119.80540 | 14946 ft | 321 kts | 84° |
| 2026-05-01 09:53 | -4.77083 | 119.82837 | 15079 ft | 340 kts | 87° |
| 2026-05-01 09:53 | -4.76961 | 119.85222 | 15188 ft | 353 kts | 88° |
| 2026-05-01 09:54 | -4.76838 | 119.87761 | 15319 ft | 366 kts | 87° |
| 2026-05-01 09:54 | -4.76695 | 119.90363 | 15579 ft | 378 kts | 87° |
| 2026-05-01 09:54 | -4.76556 | 119.92986 | 16057 ft | 384 kts | 87° |
| 2026-05-01 09:54 | -4.76408 | 119.95673 | 16578 ft | 388 kts | 87° |
| 2026-05-01 09:55 | -4.76248 | 119.98381 | 17134 ft | 390 kts | 86° |
| 2026-05-01 09:55 | -4.76094 | 120.01117 | 17698 ft | 392 kts | 87° |
| 2026-05-01 09:55 | -4.75935 | 120.03862 | 18172 ft | 395 kts | 86° |
| 2026-05-01 09:55 | -4.75773 | 120.06625 | 18560 ft | 397 kts | 86° |
| 2026-05-01 09:56 | -4.75613 | 120.09371 | 18911 ft | 394 kts | 86° |
| 2026-05-01 09:56 | -4.75463 | 120.12123 | 19147 ft | 398 kts | 87° |
| 2026-05-01 09:56 | -4.75315 | 120.14911 | 19480 ft | 400 kts | 87° |
| 2026-05-01 09:56 | -4.75164 | 120.17669 | 19790 ft | 401 kts | 86° |
| 2026-05-01 09:57 | -4.75007 | 120.20460 | 20086 ft | 403 kts | 86° |
| 2026-05-01 09:57 | -4.74845 | 120.23282 | 20424 ft | 409 kts | 86° |
| 2026-05-01 09:57 | -4.74676 | 120.26129 | 20790 ft | 410 kts | 86° |
| 2026-05-01 09:57 | -4.74503 | 120.28976 | 21120 ft | 411 kts | 86° |
| 2026-05-01 09:58 | -4.74336 | 120.31850 | 21485 ft | 414 kts | 86° |
| 2026-05-01 09:58 | -4.74169 | 120.34739 | 21842 ft | 418 kts | 86° |
| 2026-05-01 09:58 | -4.74005 | 120.37662 | 22261 ft | 421 kts | 86° |
| 2026-05-01 09:58 | -4.73849 | 120.40589 | 22616 ft | 423 kts | 86° |
| 2026-05-01 09:59 | -4.73693 | 120.43521 | 22961 ft | 423 kts | 87° |
| 2026-05-01 09:59 | -4.73531 | 120.46469 | 23292 ft | 425 kts | 86° |
| 2026-05-01 09:59 | -4.73356 | 120.49422 | 23535 ft | 425 kts | 86° |
| 2026-05-01 09:59 | -4.73186 | 120.52384 | 23768 ft | 426 kts | 86° |
| 2026-05-01 10:00 | -4.73013 | 120.55361 | 24009 ft | 428 kts | 86° |
| 2026-05-01 10:00 | -4.72843 | 120.58354 | 24272 ft | 432 kts | 86° |
| 2026-05-01 10:00 | -4.72665 | 120.61369 | 24577 ft | 434 kts | 86° |
| 2026-05-01 10:00 | -4.72485 | 120.64396 | 24864 ft | 435 kts | 86° |
| 2026-05-01 10:01 | -4.72305 | 120.67423 | 25137 ft | 435 kts | 87° |
| 2026-05-01 10:01 | -4.72124 | 120.70452 | 25376 ft | 429 kts | 86° |
| 2026-05-01 10:01 | -4.71947 | 120.73441 | 25511 ft | 432 kts | 87° |
| 2026-05-01 10:01 | -4.71781 | 120.76426 | 25623 ft | 437 kts | 87° |
| 2026-05-01 10:02 | -4.71608 | 120.79482 | 25848 ft | 440 kts | 87° |
| 2026-05-01 10:02 | -4.71427 | 120.82553 | 26116 ft | 442 kts | 87° |
| 2026-05-01 10:02 | -4.71240 | 120.85620 | 26350 ft | 442 kts | 87° |
| 2026-05-01 10:02 | -4.71063 | 120.88703 | 26579 ft | 447 kts | 87° |
| 2026-05-01 10:03 | -4.70886 | 120.91803 | 26862 ft | 445 kts | 87° |
| 2026-05-01 10:03 | -4.70709 | 120.94906 | 27092 ft | 445 kts | 87° |
| 2026-05-01 10:03 | -4.70528 | 120.98000 | 27282 ft | 445 kts | 87° |
| 2026-05-01 10:03 | -4.70360 | 121.01108 | 27469 ft | 448 kts | 87° |
| 2026-05-01 10:04 | -4.70197 | 121.04228 | 27676 ft | 449 kts | 87° |
| 2026-05-01 10:04 | -4.70016 | 121.07358 | 27875 ft | 449 kts | 87° |
| 2026-05-01 10:04 | -4.69826 | 121.10483 | 28034 ft | 450 kts | 87° |
| 2026-05-01 10:04 | -4.69635 | 121.13628 | 28216 ft | 453 kts | 87° |
| 2026-05-01 10:05 | -4.69446 | 121.16786 | 28419 ft | 455 kts | 87° |
| 2026-05-01 10:05 | -4.69251 | 121.19958 | 28636 ft | 456 kts | 87° |
| 2026-05-01 10:05 | -4.69055 | 121.23130 | 28828 ft | 457 kts | 87° |
| 2026-05-01 10:05 | -4.68867 | 121.26332 | 29043 ft | 461 kts | 87° |
| 2026-05-01 10:06 | -4.68694 | 121.29495 | 29258 ft | 460 kts | 88° |
| 2026-05-01 10:06 | -4.68526 | 121.32703 | 29415 ft | 461 kts | 88° |
| 2026-05-01 10:06 | -4.68350 | 121.35936 | 29641 ft | 465 kts | 87° |
| 2026-05-01 10:06 | -4.68226 | 121.38083 | 29852 ft | 465 kts | 87° |
| 2026-05-01 10:07 | -4.67961 | 121.42407 | 30273 ft | 462 kts | 87° |
| 2026-05-01 10:07 | -4.67827 | 121.44536 | 30427 ft | 461 kts | 87° |
| 2026-05-01 10:07 | -4.67622 | 121.47749 | 30639 ft | 462 kts | 87° |
| 2026-05-01 10:07 | -4.67426 | 121.50956 | 30829 ft | 461 kts | 87° |
| 2026-05-01 10:08 | -4.67052 | 121.57385 | 31275 ft | 464 kts | 88° |
| 2026-05-01 10:08 | -4.66873 | 121.60605 | 31526 ft | 462 kts | 88° |
| 2026-05-01 10:08 | -4.66691 | 121.63816 | 31750 ft | 462 kts | 87° |
| 2026-05-01 10:09 | -4.66505 | 121.67023 | 31966 ft | 463 kts | 87° |
| 2026-05-01 10:09 | -4.66326 | 121.70267 | 32253 ft | 465 kts | 87° |
| 2026-05-01 10:09 | -4.66147 | 121.73495 | 32584 ft | 464 kts | 87° |
| 2026-05-01 10:09 | -4.65954 | 121.76714 | 32831 ft | 463 kts | 87° |
| 2026-05-01 10:10 | -4.65760 | 121.79933 | 32905 ft | 460 kts | 87° |
| 2026-05-01 10:10 | -4.65189 | 121.89449 | 32895 ft | 458 kts | 88° |
| 2026-05-01 10:11 | -4.64817 | 121.95824 | 32901 ft | 461 kts | 88° |
| 2026-05-01 10:11 | -4.64228 | 122.02172 | 32893 ft | 460 kts | 82° |
| 2026-05-01 10:12 | -4.63217 | 122.08500 | 32887 ft | 459 kts | 82° |
| 2026-05-01 10:13 | -4.61671 | 122.18064 | 32909 ft | 464 kts | 82° |
| 2026-05-01 10:13 | -4.60678 | 122.24435 | 32912 ft | 462 kts | 82° |
| 2026-05-01 10:14 | -4.59188 | 122.34011 | 32894 ft | 459 kts | 82° |
| 2026-05-01 10:14 | -4.58198 | 122.40298 | 32884 ft | 457 kts | 82° |
| 2026-05-01 10:15 | -4.57193 | 122.46582 | 32884 ft | 457 kts | 82° |
| 2026-05-01 10:15 | -4.56185 | 122.52899 | 32874 ft | 459 kts | 82° |
| 2026-05-01 10:16 | -4.55236 | 122.59124 | 32905 ft | 456 kts | 82° |
| 2026-05-01 10:17 | -4.53744 | 122.68584 | 32893 ft | 459 kts | 82° |
| 2026-05-01 10:17 | -4.52195 | 122.78013 | 32907 ft | 456 kts | 82° |
| 2026-05-01 10:18 | -4.50721 | 122.87417 | 32884 ft | 457 kts | 82° |
| 2026-05-01 10:19 | -4.49718 | 122.93712 | 32916 ft | 462 kts | 82° |
| 2026-05-01 10:19 | -4.48689 | 123.00110 | 32929 ft | 461 kts | 82° |
| 2026-05-01 10:20 | -4.47185 | 123.09573 | 32927 ft | 454 kts | 82° |
| 2026-05-01 10:20 | -4.46186 | 123.15805 | 32903 ft | 452 kts | 82° |
| 2026-05-01 10:21 | -4.44695 | 123.25195 | 32850 ft | 448 kts | 82° |
| 2026-05-01 10:22 | -4.43237 | 123.34492 | 32865 ft | 455 kts | 82° |
| 2026-05-01 10:23 | -4.41710 | 123.43909 | 32894 ft | 455 kts | 82° |
| 2026-05-01 10:23 | -4.40263 | 123.53243 | 32874 ft | 455 kts | 82° |
| 2026-05-01 10:24 | -4.38290 | 123.65847 | 32911 ft | 456 kts | 82° |
| 2026-05-01 10:25 | -4.36311 | 123.78333 | 32886 ft | 453 kts | 82° |
| 2026-05-01 10:26 | -4.35300 | 123.84548 | 32903 ft | 458 kts | 82° |
| 2026-05-01 10:27 | -4.33313 | 123.97408 | 32898 ft | 475 kts | 82° |
| 2026-05-01 10:28 | -4.31788 | 124.07194 | 32899 ft | 473 kts | 82° |
| 2026-05-01 10:28 | -4.30204 | 124.16982 | 32881 ft | 474 kts | 82° |
| 2026-05-01 10:29 | -4.28692 | 124.26707 | 32862 ft | 472 kts | 82° |
| 2026-05-01 10:30 | -4.26622 | 124.39741 | 32882 ft | 475 kts | 82° |
| 2026-05-01 10:31 | -4.24556 | 124.52825 | 32889 ft | 474 kts | 82° |
| 2026-05-01 10:32 | -4.23000 | 124.62681 | 32910 ft | 480 kts | 82° |
| 2026-05-01 10:33 | -4.20911 | 124.75880 | 32923 ft | 477 kts | 82° |
| 2026-05-01 10:34 | -4.19331 | 124.85726 | 32915 ft | 479 kts | 82° |
| 2026-05-01 10:34 | -4.18306 | 124.92307 | 32918 ft | 474 kts | 82° |
| 2026-05-01 10:35 | -4.16754 | 125.02075 | 32904 ft | 475 kts | 82° |
| 2026-05-01 10:35 | -4.15700 | 125.08587 | 32887 ft | 474 kts | 82° |
| 2026-05-01 10:36 | -4.14154 | 125.18348 | 32886 ft | 474 kts | 82° |
| 2026-05-01 10:37 | -4.13125 | 125.24889 | 32887 ft | 474 kts | 82° |
| 2026-05-01 10:37 | -4.11557 | 125.34735 | 32910 ft | 475 kts | 81° |
| 2026-05-01 10:38 | -4.10503 | 125.41236 | 32907 ft | 471 kts | 82° |
| 2026-05-01 10:38 | -4.09479 | 125.47740 | 32901 ft | 475 kts | 82° |
| 2026-05-01 10:39 | -4.08445 | 125.54260 | 32913 ft | 479 kts | 82° |
| 2026-05-01 10:39 | -4.07391 | 125.60830 | 32914 ft | 476 kts | 81° |
| 2026-05-01 10:40 | -4.06337 | 125.67360 | 32901 ft | 472 kts | 82° |
| 2026-05-01 10:40 | -4.05310 | 125.73873 | 32897 ft | 472 kts | 82° |
| 2026-05-01 10:41 | -4.04283 | 125.80377 | 32891 ft | 473 kts | 82° |
| 2026-05-01 10:42 | -4.02712 | 125.90132 | 32860 ft | 468 kts | 81° |
| 2026-05-01 10:42 | -4.01824 | 125.96492 | 32839 ft | 457 kts | 90° |
| 2026-05-01 10:42 | -4.02147 | 125.99656 | 32896 ft | 459 kts | 103° |
| 2026-05-01 10:43 | -4.02927 | 126.02795 | 32890 ft | 465 kts | 104° |
| 2026-05-01 10:43 | -4.04539 | 126.09108 | 32893 ft | 470 kts | 103° |
| 2026-05-01 10:43 | -4.04931 | 126.12358 | 32902 ft | 472 kts | 89° |
| 2026-05-01 10:44 | -4.04708 | 126.15629 | 32888 ft | 470 kts | 85° |
| 2026-05-01 10:44 | -4.04114 | 126.22165 | 32899 ft | 473 kts | 85° |
| 2026-05-01 10:45 | -4.03505 | 126.28612 | 32885 ft | 459 kts | 85° |
| 2026-05-01 10:45 | -4.03217 | 126.31757 | 32387 ft | 449 kts | 85° |
| 2026-05-01 10:45 | -4.02934 | 126.34885 | 31549 ft | 453 kts | 85° |
| 2026-05-01 10:45 | -4.02647 | 126.38040 | 30782 ft | 454 kts | 85° |
| 2026-05-01 10:46 | -4.02354 | 126.41194 | 30144 ft | 453 kts | 85° |
| 2026-05-01 10:46 | -4.02065 | 126.44318 | 29508 ft | 449 kts | 85° |
| 2026-05-01 10:46 | -4.01788 | 126.47422 | 28918 ft | 447 kts | 85° |
| 2026-05-01 10:46 | -4.01517 | 126.50511 | 28398 ft | 441 kts | 85° |
| 2026-05-01 10:47 | -4.01249 | 126.53559 | 27881 ft | 437 kts | 85° |
| 2026-05-01 10:47 | -4.00982 | 126.56588 | 27325 ft | 436 kts | 85° |
| 2026-05-01 10:47 | -4.00713 | 126.59579 | 26806 ft | 428 kts | 85° |
| 2026-05-01 10:47 | -4.00445 | 126.62530 | 26201 ft | 423 kts | 85° |
| 2026-05-01 10:48 | -4.00169 | 126.65468 | 25644 ft | 424 kts | 85° |
| 2026-05-01 10:48 | -3.99895 | 126.68343 | 25169 ft | 419 kts | 85° |
| 2026-05-01 10:48 | -3.99624 | 126.71229 | 24674 ft | 416 kts | 85° |
| 2026-05-01 10:48 | -3.99352 | 126.74106 | 24206 ft | 413 kts | 85° |
| 2026-05-01 10:49 | -3.99081 | 126.76971 | 23660 ft | 417 kts | 85° |
| 2026-05-01 10:49 | -3.98813 | 126.79920 | 23155 ft | 429 kts | 85° |
| 2026-05-01 10:49 | -3.98545 | 126.82909 | 22561 ft | 430 kts | 85° |
| 2026-05-01 10:49 | -3.98281 | 126.85899 | 22014 ft | 429 kts | 85° |
| 2026-05-01 10:50 | -3.98014 | 126.88852 | 21469 ft | 423 kts | 85° |
| 2026-05-01 10:50 | -3.97748 | 126.91779 | 20944 ft | 418 kts | 85° |
| 2026-05-01 10:50 | -3.97481 | 126.94634 | 20430 ft | 415 kts | 85° |
| 2026-05-01 10:50 | -3.97220 | 126.97503 | 19907 ft | 412 kts | 85° |
| 2026-05-01 10:51 | -3.96949 | 127.00359 | 19405 ft | 410 kts | 84° |
| 2026-05-01 10:51 | -3.96682 | 127.03227 | 18908 ft | 416 kts | 84° |
| 2026-05-01 10:51 | -3.96410 | 127.06103 | 18421 ft | 416 kts | 84° |
| 2026-05-01 10:51 | -3.96141 | 127.08953 | 17894 ft | 411 kts | 85° |
| 2026-05-01 10:52 | -3.95886 | 127.11786 | 17352 ft | 405 kts | 85° |
| 2026-05-01 10:52 | -3.95632 | 127.14590 | 16796 ft | 405 kts | 85° |
| 2026-05-01 10:52 | -3.95373 | 127.17389 | 16242 ft | 403 kts | 85° |
| 2026-05-01 10:52 | -3.95116 | 127.20165 | 15732 ft | 398 kts | 85° |
| 2026-05-01 10:53 | -3.94871 | 127.22905 | 15221 ft | 398 kts | 85° |
| 2026-05-01 10:53 | -3.94625 | 127.25599 | 14724 ft | 392 kts | 85° |
| 2026-05-01 10:53 | -3.94385 | 127.28312 | 14220 ft | 391 kts | 85° |
| 2026-05-01 10:53 | -3.94142 | 127.31015 | 13712 ft | 388 kts | 85° |
| 2026-05-01 10:54 | -3.93892 | 127.33696 | 13160 ft | 385 kts | 85° |
| 2026-05-01 10:54 | -3.93644 | 127.36362 | 12616 ft | 384 kts | 85° |
| 2026-05-01 10:54 | -3.93397 | 127.39001 | 12074 ft | 378 kts | 85° |
| 2026-05-01 10:54 | -3.93151 | 127.41599 | 11539 ft | 375 kts | 85° |
| 2026-05-01 10:55 | -3.92919 | 127.44162 | 11024 ft | 373 kts | 85° |
| 2026-05-01 10:55 | -3.92681 | 127.46731 | 10497 ft | 363 kts | 85° |
| 2026-05-01 10:55 | -3.92455 | 127.49173 | 9993 ft | 342 kts | 85° |
| 2026-05-01 10:55 | -3.92244 | 127.51492 | 9462 ft | 333 kts | 85° |
| 2026-05-01 10:56 | -3.92032 | 127.53801 | 8914 ft | 334 kts | 85° |
| 2026-05-01 10:56 | -3.91813 | 127.56148 | 8683 ft | 337 kts | 86° |
| 2026-05-01 10:56 | -3.91593 | 127.58456 | 8474 ft | 329 kts | 85° |
| 2026-05-01 10:56 | -3.91383 | 127.60712 | 8280 ft | 321 kts | 85° |
| 2026-05-01 10:57 | -3.91186 | 127.62875 | 8080 ft | 308 kts | 85° |
| 2026-05-01 10:57 | -3.90988 | 127.64966 | 7860 ft | 300 kts | 85° |
| 2026-05-01 10:57 | -3.90799 | 127.67012 | 7679 ft | 290 kts | 85° |
| 2026-05-01 10:57 | -3.90619 | 127.68991 | 7488 ft | 281 kts | 86° |
| 2026-05-01 10:58 | -3.90443 | 127.70913 | 7298 ft | 275 kts | 85° |
| 2026-05-01 10:58 | -3.90325 | 127.72200 | 7169 ft | 274 kts | 85° |
| 2026-05-01 10:58 | -3.90094 | 127.74728 | 6922 ft | 276 kts | 86° |
| 2026-05-01 10:58 | -3.89981 | 127.76009 | 6795 ft | 272 kts | 86° |
| 2026-05-01 10:59 | -3.89811 | 127.77902 | 6602 ft | 274 kts | 85° |
| 2026-05-01 10:59 | -3.89636 | 127.79774 | 6351 ft | 273 kts | 86° |
| 2026-05-01 10:59 | -3.89463 | 127.81657 | 6079 ft | 271 kts | 86° |
| 2026-05-01 10:59 | -3.89293 | 127.83477 | 5668 ft | 268 kts | 85° |
| 2026-05-01 11:00 | -3.89118 | 127.85329 | 5277 ft | 267 kts | 86° |
| 2026-05-01 11:00 | -3.88943 | 127.87124 | 5133 ft | 255 kts | 86° |
| 2026-05-01 11:00 | -3.88780 | 127.88833 | 5013 ft | 243 kts | 85° |
| 2026-05-01 11:00 | -3.88389 | 127.90446 | 4877 ft | 235 kts | 69° |
| 2026-05-01 11:01 | -3.87541 | 127.91835 | 4685 ft | 236 kts | 53° |
| 2026-05-01 11:01 | -3.86520 | 127.93105 | 4485 ft | 234 kts | 54° |
| 2026-05-01 11:01 | -3.85507 | 127.94370 | 4285 ft | 233 kts | 54° |
| 2026-05-01 11:01 | -3.84487 | 127.95633 | 4058 ft | 233 kts | 52° |
| 2026-05-01 11:02 | -3.83394 | 127.96811 | 3805 ft | 233 kts | 49° |
| 2026-05-01 11:02 | -3.82246 | 127.97945 | 3565 ft | 230 kts | 47° |
| 2026-05-01 11:02 | -3.81092 | 127.99054 | 3310 ft | 227 kts | 47° |
| 2026-05-01 11:02 | -3.79994 | 128.00085 | 3065 ft | 213 kts | 47° |
| 2026-05-01 11:03 | -3.78933 | 128.01113 | 2833 ft | 205 kts | 47° |
| 2026-05-01 11:03 | -3.77957 | 128.02065 | 2623 ft | 197 kts | 49° |
| 2026-05-01 11:03 | -3.77038 | 128.02979 | 2379 ft | 187 kts | 48° |
| 2026-05-01 11:03 | -3.76247 | 128.03923 | 2210 ft | 168 kts | 67° |
| 2026-05-01 11:04 | -3.75868 | 128.04962 | 2190 ft | 153 kts | 81° |
| 2026-05-01 11:04 | -3.75738 | 128.05999 | 2204 ft | 149 kts | 86° |
| 2026-05-01 11:04 | -3.75632 | 128.07024 | 2204 ft | 148 kts | 86° |
| 2026-05-01 11:04 | -3.75522 | 128.08033 | 2211 ft | 147 kts | 86° |
| 2026-05-01 11:05 | -3.75423 | 128.09053 | 2194 ft | 149 kts | 85° |
| 2026-05-01 11:05 | -3.75312 | 128.10073 | 2202 ft | 147 kts | 78° |
| 2026-05-01 11:05 | -3.74817 | 128.10925 | 2220 ft | 155 kts | 51° |
| 2026-05-01 11:05 | -3.73983 | 128.11716 | 2223 ft | 174 kts | 45° |
| 2026-05-01 11:06 | -3.73052 | 128.12520 | 2210 ft | 182 kts | 44° |
| 2026-05-01 11:06 | -3.72086 | 128.13340 | 2189 ft | 184 kts | 46° |
| 2026-05-01 11:06 | -3.71131 | 128.14108 | 2143 ft | 164 kts | 44° |
| 2026-05-01 11:07 | -3.69490 | 128.15393 | 1856 ft | 154 kts | 27° |
| 2026-05-01 11:07 | -3.68406 | 128.15444 | 1556 ft | 162 kts | 337° |
| 2026-05-01 11:07 | -3.67645 | 128.14722 | 1606 ft | 157 kts | 298° |
| 2026-05-01 11:07 | -3.67441 | 128.13664 | 1543 ft | 156 kts | 261° |
| 2026-05-01 11:08 | -3.67780 | 128.12624 | 1241 ft | 160 kts | 242° |
| 2026-05-01 11:08 | -3.68352 | 128.11677 | 900 ft | 159 kts | 216° |
| 2026-05-01 11:08 | -3.69840 | 128.10150 | 249 ft | 153 kts | 224° |
| 2026-05-01 11:09 | -3.70543 | 128.09440 | 49 ft | 137 kts | 224° |
| 2026-05-01 11:09 | -3.71144 | 128.08849 | 34 ft | 96 kts | 225° |
| 2026-05-01 11:09 | -3.71344 | 128.08651 | 35 ft | 16 kts | 229° |
| 2026-05-01 11:10 | -3.71353 | 128.08645 | 35 ft | 12 kts | 39° |
| 2026-05-01 11:10 | -3.71291 | 128.08702 | 34 ft | 15 kts | 44° |
| 2026-05-01 11:10 | -3.71202 | 128.08790 | 35 ft | 20 kts | 46° |
| 2026-05-01 11:10 | -3.71103 | 128.08866 | 34 ft | 14 kts | 356° |
| 2026-05-01 11:11 | -3.71033 | 128.08798 | 36 ft | 16 kts | 315° |
| 2026-05-01 11:11 | -3.70919 | 128.08766 | 37 ft | 20 kts | 359° |
| 2026-05-01 11:11 | -3.70786 | 128.08766 | 37 ft | 14 kts | 3° |
| 2026-05-01 11:11 | -3.70728 | 128.08767 | 37 ft | 10 kts | 7° |
| 2026-05-01 11:12 | -3.70695 | 128.08810 | 37 ft | 2 kts | 74° |
| 2026-05-01 11:12 | -3.70661 | 128.08817 | 37 ft | 5 kts | 356° |
| 2026-05-01 11:12 | -3.70635 | 128.08817 | 37 ft | 4 kts | 1° |
| 2026-05-01 11:12 | -3.70631 | 128.08817 | 37 ft | 0 kts | 1° |